Time;durP1;ratioP1;P1;durP2;ratioP2;P2;SDS_P1;SDS_P2;PMS_P1;PMS_P2;Temp;Humidity;BMP_temperature;BMP_pressure;BME280_temperature;BME280_humidity;BME280_pressure;Samples;Min_cycle;Max_cycle;Signal;HPM_P1;HPM_P2
2022/09/05 00:01:31;;;;;;;;;3.00;3.00;;;;;25.13;45.11;100968.13;5105145;27;45368;-57
2022/09/05 00:03:56;;;;;;;;;2.40;2.20;;;;;25.13;45.63;100962.50;5119156;27;45394;-53
2022/09/05 00:06:23;;;;;;;;;4.00;3.25;;;;;25.08;45.80;100959.78;5119694;27;45884;-57
2022/09/05 00:08:58;;;;;;;;;3.00;2.80;;;;;24.92;45.50;100946.00;5100947;27;45980;-57
2022/09/05 00:11:40;;;;;;;;;2.00;2.00;;;;;25.06;45.91;100967.69;5118854;27;45416;-56
2022/09/05 00:14:27;;;;;;;;;3.40;2.40;;;;;25.04;45.84;100971.59;5117868;27;45514;-56
2022/09/05 00:17:02;;;;;;;;;4.60;3.60;;;;;25.00;45.66;100997.78;5119320;27;45462;-56
2022/09/05 00:19:44;;;;;;;;;3.00;3.00;;;;;24.88;46.51;100982.22;5119107;27;45690;-58
2022/09/05 00:22:32;;;;;;;;;1.60;1.60;;;;;24.75;46.74;100995.03;5101306;27;45477;-56
2022/09/05 00:25:09;;;;;;;;;2.80;2.80;;;;;24.69;47.02;100990.63;5100564;27;45453;-54
2022/09/05 00:27:44;;;;;;;;;1.40;1.40;;;;;24.59;46.73;100982.38;5118999;27;45447;-56
2022/09/05 00:30:19;;;;;;;;;1.00;1.00;;;;;24.38;46.45;100960.19;5103182;27;45956;-57
2022/09/05 00:32:59;;;;;;;;;2.00;2.00;;;;;24.34;47.02;100961.94;5097919;27;45452;-56
2022/09/05 00:35:56;;;;;;;;;2.00;0.40;;;;;24.42;46.78;100960.41;5098135;27;45177;-53
2022/09/05 00:38:23;;;;;;;;;3.00;2.00;;;;;24.46;47.00;100962.34;5081208;27;45592;-57
2022/09/05 00:40:49;;;;;;;;;3.40;2.00;;;;;24.48;46.66;100970.41;5079662;27;46719;-55
2022/09/05 00:43:23;;;;;;;;;1.25;1.25;;;;;24.45;46.97;100946.63;5097988;27;45387;-57
2022/09/05 00:45:58;;;;;;;;;1.40;1.40;;;;;24.51;46.64;100969.84;5098032;27;45375;-57
2022/09/05 00:48:51;;;;;;;;;1.00;1.00;;;;;24.37;46.68;100947.28;5098000;27;45379;-55
2022/09/05 00:51:49;;;;;;;;;1.40;1.40;;;;;24.40;45.94;100952.31;5079662;27;46628;-56
2022/09/05 00:54:39;;;;;;;;;1.40;1.40;;;;;24.56;46.38;100983.81;5079474;27;45385;-57
2022/09/05 00:57:29;;;;;;;;;2.40;1.40;;;;;24.47;46.34;100964.00;5097986;27;45285;-54
2022/09/05 01:00:10;;;;;;;;;1.00;1.00;;;;;24.49;46.21;100963.72;5098136;27;45397;-56
2022/09/05 01:02:55;;;;;;;;;2.00;2.00;;;;;24.65;45.83;100978.31;5097869;27;46292;-56
2022/09/05 01:05:54;;;;;;;;;1.20;1.20;;;;;24.70;46.05;100957.81;5079505;27;45549;-56
2022/09/05 01:08:45;;;;;;;;;2.40;1.00;;;;;24.47;47.33;100935.94;5097835;27;45399;-56
2022/09/05 01:11:34;;;;;;;;;4.80;3.40;;;;;24.56;47.86;100949.28;5080427;27;45832;-57
2022/09/05 01:14:18;;;;;;;;;4.00;4.00;;;;;24.49;48.87;100949.69;5097335;27;45532;-55
2022/09/05 01:16:53;;;;;;;;;2.80;2.20;;;;;24.46;49.40;100951.13;5097338;27;45366;-53
2022/09/05 01:19:24;;;;;;;;;3.40;3.40;;;;;24.40;49.25;100929.88;5097675;27;45258;-53
2022/09/05 01:21:58;;;;;;;;;3.20;3.00;;;;;24.45;49.32;100954.22;5079272;27;45425;-56
2022/09/05 01:25:00;;;;;;;;;4.20;2.60;;;;;24.47;50.48;101003.28;5097166;27;45611;-55
2022/09/05 01:28:02;;;;;;;;;1.60;1.60;;;;;24.49;49.68;101037.44;5075012;27;45353;-56
2022/09/05 01:30:34;;;;;;;;;5.40;1.60;;;;;24.35;49.72;100991.63;5110450;27;45389;-55
2022/09/05 01:33:02;;;;;;;;;4.60;4.20;;;;;24.41;52.93;100983.97;5118281;27;45335;-56
2022/09/05 01:35:45;;;;;;;;;3.60;1.80;;;;;24.26;54.39;100979.44;5117508;27;45625;-54
2022/09/05 01:38:26;;;;;;;;;2.80;2.80;;;;;24.09;56.00;100924.66;5099214;27;45351;-57
2022/09/05 01:40:51;;;;;;;;;3.60;3.00;;;;;24.19;55.53;100941.38;5118065;27;45237;-55
2022/09/05 01:43:35;;;;;;;;;5.00;4.00;;;;;24.02;55.24;100938.19;5117912;27;45583;-55
2022/09/05 01:46:26;;;;;;;;;4.00;4.00;;;;;23.94;55.98;100928.44;5099588;27;45908;-57
2022/09/05 01:49:23;;;;;;;;;4.60;2.40;;;;;23.88;56.81;100924.03;5099062;27;45361;-55
2022/09/05 01:52:17;;;;;;;;;3.40;3.40;;;;;23.83;55.43;100916.53;5101757;27;45387;-55
2022/09/05 01:55:10;;;;;;;;;2.00;2.00;;;;;23.62;54.20;100890.69;5117816;27;45418;-57
2022/09/05 01:57:43;;;;;;;;;2.00;1.40;;;;;23.74;53.81;100919.16;5117237;27;46452;-55
2022/09/05 02:00:20;;;;;;;;;2.00;2.00;;;;;23.57;53.95;100958.81;5099062;27;45447;-57
2022/09/05 02:03:28;;;;;;;;;3.40;3.40;;;;;23.62;53.47;100961.59;5117559;27;45508;-57
2022/09/05 02:06:02;;;;;;;;;3.00;3.00;;;;;23.56;53.87;100929.16;5099350;27;45423;-57
2022/09/05 02:08:52;;;;;;;;;2.00;2.00;;;;;23.66;54.00;100954.28;5117308;27;46702;-52
2022/09/05 02:11:17;;;;;;;;;2.40;2.40;;;;;23.64;53.33;100950.91;5117177;27;45355;-57
2022/09/05 02:14:21;;;;;;;;;3.00;3.00;;;;;23.62;54.17;100949.53;5098908;27;45477;-55
2022/09/05 02:16:47;;;;;;;;;2.00;2.00;;;;;23.44;54.10;100926.75;5114568;27;45661;-58
2022/09/05 02:19:22;;;;;;;;;4.00;4.00;;;;;23.55;54.27;100955.50;5081618;27;45879;-58
2022/09/05 02:21:49;;;;;;;;;2.40;2.40;;;;;23.49;54.19;100959.47;5097582;27;45334;-57
2022/09/05 02:24:26;;;;;;;;;3.40;3.40;;;;;23.47;54.49;100956.16;5116934;27;45305;-59
2022/09/05 02:27:24;;;;;;;;;4.00;4.00;;;;;23.50;54.54;100950.78;5116119;27;45455;-57
2022/09/05 02:29:57;;;;;;;;;2.00;2.00;;;;;23.55;54.57;100945.09;5110860;27;45500;-57
2022/09/05 02:32:34;;;;;;;;;4.80;2.60;;;;;23.58;54.58;100948.47;5078185;27;45448;-57
2022/09/05 02:35:02;;;;;;;;;3.60;3.60;;;;;23.46;54.21;100934.84;5096662;27;45389;-54
2022/09/05 02:37:34;;;;;;;;;3.20;3.20;;;;;23.47;54.13;100948.56;5078339;27;45305;-56
2022/09/05 02:40:17;;;;;;;;;3.00;3.00;;;;;23.42;54.31;100940.19;5096294;27;46498;-57
2022/09/05 02:42:57;;;;;;;;;2.20;2.20;;;;;23.27;54.53;100924.38;5080528;27;45336;-55
2022/09/05 02:45:31;;;;;;;;;4.40;3.60;;;;;23.46;54.58;100946.03;5096583;27;45305;-56
2022/09/05 02:48:38;;;;;;;;;3.00;3.00;;;;;23.38;54.58;100944.75;5096497;27;45695;-57
2022/09/05 02:51:09;;;;;;;;;2.20;2.20;;;;;23.36;53.92;100947.81;5063817;27;45569;-56
2022/09/05 02:53:36;;;;;;;;;3.40;3.40;;;;;23.05;53.73;100920.06;5077411;27;45449;-55
2022/09/05 02:56:13;;;;;;;;;2.40;2.40;;;;;23.27;54.61;100974.75;5078122;27;45289;-54
2022/09/05 02:58:45;;;;;;;;;3.00;3.00;;;;;23.32;54.51;100974.72;5077978;27;45224;-54
2022/09/05 03:01:11;;;;;;;;;4.60;4.60;;;;;23.36;54.56;100975.81;5095889;27;46600;-57
2022/09/05 03:03:47;;;;;;;;;3.50;2.75;;;;;23.23;54.31;100948.47;5095809;27;45395;-57
2022/09/05 03:06:25;;;;;;;;;3.80;3.80;;;;;23.36;53.86;100969.38;5061506;27;45413;-56
2022/09/05 03:08:59;;;;;;;;;2.80;2.80;;;;;23.33;54.11;100973.63;5096415;27;45508;-56
2022/09/05 03:11:35;;;;;;;;;2.20;2.20;;;;;23.25;53.82;100969.44;5095708;27;46277;-56
2022/09/05 03:14:08;;;;;;;;;4.20;3.40;;;;;23.29;54.60;100992.09;5077345;27;45675;-55
2022/09/05 03:17:04;;;;;;;;;2.60;2.60;;;;;23.29;54.75;100990.16;5077564;27;45429;-57
2022/09/05 03:19:44;;;;;;;;;2.20;2.20;;;;;23.32;54.35;100991.53;5096196;27;45152;-58
2022/09/05 03:22:30;;;;;;;;;3.60;3.60;;;;;23.32;54.45;100994.31;5095654;27;46569;-56
2022/09/05 03:25:23;;;;;;;;;5.00;4.00;;;;;23.24;54.90;100997.72;5095286;27;45488;-57
2022/09/05 03:28:16;;;;;;;;;4.20;4.20;;;;;23.22;54.76;101014.00;5095870;27;45483;-52
2022/09/05 03:30:59;;;;;;;;;5.00;3.60;;;;;23.19;54.97;101009.81;5108240;27;45396;-57
2022/09/05 03:33:52;;;;;;;;;4.00;4.00;;;;;23.20;55.09;101003.06;5117535;27;46476;-54
2022/09/05 03:36:51;;;;;;;;;4.00;3.00;;;;;23.11;54.64;100983.25;5120133;27;45324;-57
2022/09/05 03:39:29;;;;;;;;;3.60;3.20;;;;;23.15;54.96;101003.09;5103268;27;45462;-56
2022/09/05 03:42:08;;;;;;;;;5.60;3.60;;;;;23.12;55.25;101001.72;5102976;27;45579;-56
2022/09/05 03:44:48;;;;;;;;;4.00;4.00;;;;;23.14;55.03;101002.28;5101119;27;46462;-57
2022/09/05 03:47:32;;;;;;;;;3.20;3.20;;;;;23.15;55.12;101003.97;5119710;27;45453;-56
2022/09/05 03:50:16;;;;;;;;;4.60;4.00;;;;;23.00;55.32;100973.28;5119809;27;45348;-55
2022/09/05 03:52:50;;;;;;;;;6.20;5.00;;;;;23.11;55.72;100996.44;5101631;27;45550;-56
2022/09/05 03:55:43;;;;;;;;;2.20;2.20;;;;;23.03;55.36;100975.50;5119696;27;45998;-56
2022/09/05 03:58:34;;;;;;;;;4.40;4.00;;;;;23.06;55.27;100988.91;5104276;27;45437;-55
2022/09/05 04:01:04;;;;;;;;;3.40;3.40;;;;;23.09;55.39;100990.28;5101247;27;45295;-57
2022/09/05 04:03:39;;;;;;;;;4.20;3.40;;;;;22.91;55.08;100956.28;5119959;27;45305;-56
2022/09/05 04:06:20;;;;;;;;;4.40;4.40;;;;;23.07;55.11;100990.59;5101289;27;46173;-56
2022/09/05 04:08:51;;;;;;;;;5.00;5.00;;;;;23.06;55.34;100996.47;5119661;27;45375;-56
2022/09/05 04:11:30;;;;;;;;;5.60;4.20;;;;;23.05;55.73;100995.63;5119729;27;45928;-57
2022/09/05 04:13:58;;;;;;;;;3.20;3.20;;;;;23.00;56.50;100996.50;5118314;27;45580;-57
2022/09/05 04:16:41;;;;;;;;;4.00;4.00;;;;;22.87;56.23;100989.59;5119381;27;45652;-58
2022/09/05 04:19:06;;;;;;;;;8.40;5.60;;;;;22.98;56.48;100997.91;5102171;27;45312;-56
2022/09/05 04:21:34;;;;;;;;;6.00;6.00;;;;;22.87;56.88;100969.16;5119505;27;45304;-56
2022/09/05 04:24:29;;;;;;;;;5.80;5.40;;;;;23.06;56.22;101002.91;5101470;27;45693;-57
2022/09/05 04:27:13;;;;;;;;;5.00;4.00;;;;;23.06;56.69;100988.06;5119217;27;45795;-54
2022/09/05 04:29:43;;;;;;;;;7.00;7.00;;;;;23.02;56.78;100988.63;5116620;27;45867;-57
2022/09/05 04:32:27;;;;;;;;;5.40;5.00;;;;;23.07;56.30;100996.19;5080395;27;45445;-57
2022/09/05 04:35:13;;;;;;;;;5.20;5.20;;;;;23.10;56.92;101000.38;5098684;27;45411;-57
2022/09/05 04:37:43;;;;;;;;;5.20;5.20;;;;;23.00;56.99;100984.50;5097719;27;46712;-54
2022/09/05 04:40:38;;;;;;;;;5.60;5.60;;;;;22.95;57.70;100992.91;5055690;27;45473;-56
2022/09/05 04:43:08;;;;;;;;;5.20;5.20;;;;;22.76;58.12;101007.56;5111254;27;45356;-56
2022/09/05 04:45:40;;;;;;;;;6.60;6.00;;;;;22.49;58.47;100997.59;5118306;27;45614;-57
2022/09/05 04:48:06;;;;;;;;;4.80;4.80;;;;;22.56;59.00;101028.91;5118556;27;46696;-56
2022/09/05 04:50:32;;;;;;;;;5.80;5.80;;;;;22.63;58.55;101027.78;5100512;27;45360;-56
2022/09/05 04:53:06;;;;;;;;;6.50;6.00;;;;;22.69;58.53;101032.22;5100411;27;45384;-56
2022/09/05 04:55:43;;;;;;;;;3.80;3.80;;;;;22.67;58.61;101026.09;5118955;27;45319;-56
2022/09/05 04:58:19;;;;;;;;;6.40;5.80;;;;;22.76;57.93;101029.94;5100489;27;45766;-56
2022/09/05 05:00:52;;;;;;;;;5.00;5.00;;;;;22.78;57.83;101018.47;5100956;27;45434;-56
2022/09/05 05:03:28;;;;;;;;;4.00;4.00;;;;;22.78;57.62;101016.50;5100341;27;45827;-57
2022/09/05 05:05:56;;;;;;;;;10.20;7.20;;;;;22.71;58.02;101008.44;5100234;27;45451;-57
2022/09/05 05:08:31;;;;;;;;;8.00;8.00;;;;;22.85;58.01;101025.41;5100118;27;46406;-56
2022/09/05 05:11:06;;;;;;;;;6.00;4.00;;;;;22.63;57.90;100995.06;5118256;27;45475;-56
2022/09/05 05:13:44;;;;;;;;;6.00;6.00;;;;;22.81;58.01;101021.53;5099628;27;45367;-56
2022/09/05 05:16:19;;;;;;;;;5.80;5.80;;;;;22.81;58.24;101024.34;5100146;27;45318;-54
2022/09/05 05:18:57;;;;;;;;;5.60;4.80;;;;;22.78;58.46;101013.69;5099816;27;46742;-55
2022/09/05 05:21:24;;;;;;;;;7.40;6.20;;;;;22.78;58.47;101033.28;5099752;27;45480;-58
2022/09/05 05:23:56;;;;;;;;;7.00;7.00;;;;;22.77;58.96;101025.19;5100252;27;45422;-57
2022/09/05 05:26:43;;;;;;;;;6.40;5.80;;;;;22.73;58.71;101019.34;5100020;27;45301;-57
2022/09/05 05:29:15;;;;;;;;;7.00;7.00;;;;;22.82;58.45;101019.56;5066296;27;46359;-58
2022/09/05 05:31:51;;;;;;;;;7.00;7.00;;;;;22.82;59.00;101017.59;5099728;27;45482;-56
2022/09/05 05:34:22;;;;;;;;;7.00;6.80;;;;;22.79;59.02;101026.56;5095072;27;45372;-58
2022/09/05 05:36:55;;;;;;;;;9.80;7.00;;;;;22.80;58.96;101022.66;5061709;27;45333;-56
2022/09/05 05:39:25;;;;;;;;;6.20;6.00;;;;;22.83;58.78;101030.47;5061852;27;46584;-55
2022/09/05 05:41:52;;;;;;;;;8.20;8.20;;;;;22.74;58.76;101007.84;5054775;27;45790;-55
2022/09/05 05:44:31;;;;;;;;;7.20;6.40;;;;;22.83;58.82;101032.44;5061765;27;45421;-56
2022/09/05 05:47:02;;;;;;;;;8.60;8.00;;;;;22.87;58.28;101036.31;5078218;27;45362;-57
2022/09/05 05:50:01;;;;;;;;;8.40;7.00;;;;;22.84;58.55;101046.13;5111064;27;46234;-58
2022/09/05 05:52:57;;;;;;;;;6.40;6.40;;;;;22.84;58.28;101048.91;5116695;27;45321;-56
2022/09/05 05:55:50;;;;;;;;;7.80;6.60;;;;;22.87;58.45;101042.75;5099522;27;45465;-57
2022/09/05 05:58:28;;;;;;;;;7.80;7.80;;;;;22.99;57.65;101050.81;5083123;27;45681;-54
2022/09/05 06:00:53;;;;;;;;;8.00;8.00;;;;;23.04;57.34;101057.50;5094501;27;46775;-57
2022/09/05 06:03:41;;;;;;;;;6.25;6.25;;;;;22.96;58.03;101058.94;5095235;27;45325;-53
2022/09/05 06:06:49;;;;;;;;;7.80;7.80;;;;;23.03;57.93;101059.47;5062727;27;45440;-57
2022/09/05 06:09:23;;;;;;;;;6.00;5.20;;;;;23.06;57.54;101064.50;5087457;27;45416;-57
2022/09/05 06:12:34;;;;;;;;;7.00;7.00;;;;;23.04;57.01;101063.09;5096705;27;46262;-56
2022/09/05 06:15:37;;;;;;;;;7.20;6.20;;;;;23.13;56.48;101084.59;5069282;27;45500;-58
2022/09/05 06:18:21;;;;;;;;;8.40;6.20;;;;;23.13;56.36;101084.59;5096920;27;45242;-57
2022/09/05 06:21:04;;;;;;;;;6.80;6.80;;;;;23.14;56.40;101085.41;5096771;27;45468;-53
2022/09/05 06:23:38;;;;;;;;;6.80;6.80;;;;;23.12;55.75;101087.69;5096580;27;46874;-53
2022/09/05 06:26:11;;;;;;;;;6.00;6.00;;;;;23.15;55.86;101092.69;5079683;27;45407;-56
2022/09/05 06:29:21;;;;;;;;;8.40;8.40;;;;;23.16;55.97;101091.59;5076299;28;45313;-55
2022/09/05 06:32:05;;;;;;;;;7.20;6.00;;;;;23.08;55.48;101093.03;5068202;28;45637;-55
2022/09/05 06:34:45;;;;;;;;;5.40;4.00;;;;;23.13;55.83;101112.59;5072718;27;45667;-52
2022/09/05 06:37:35;;;;;;;;;6.00;6.00;;;;;23.12;55.47;101108.09;5096781;27;45359;-57
2022/09/05 06:40:25;;;;;;;;;6.60;6.60;;;;;23.12;55.56;101130.50;5096731;27;45377;-50
2022/09/05 06:42:57;;;;;;;;;6.60;5.60;;;;;22.95;55.81;101099.25;5096889;27;45278;-58
2022/09/05 06:45:30;;;;;;;;;10.20;7.00;;;;;23.09;55.73;101133.88;5096356;27;46530;-56
2022/09/05 06:48:18;;;;;;;;;6.00;6.00;;;;;23.06;55.30;101128.88;5078177;27;45467;-52
2022/09/05 06:50:55;;;;;;;;;8.00;7.40;;;;;23.14;55.08;101135.81;5080891;27;45334;-54
2022/09/05 06:53:33;;;;;;;;;7.60;6.60;;;;;23.32;54.98;101153.94;5096955;27;45317;-58
2022/09/05 06:56:05;;;;;;;;;4.20;4.20;;;;;23.25;54.58;101136.59;5096110;27;45948;-57
2022/09/05 06:58:56;;;;;;;;;5.20;5.00;;;;;23.49;54.48;101175.13;5078752;27;45250;-56
2022/09/05 07:01:33;;;;;;;;;6.00;6.00;;;;;23.51;54.28;101168.13;5079227;27;45357;-54
2022/09/05 07:04:32;;;;;;;;;8.20;7.20;;;;;23.53;54.14;101148.22;5078402;27;45552;-59
2022/09/05 07:07:09;;;;;;;;;7.60;6.80;;;;;23.40;54.42;101130.09;5096281;27;45710;-57
2022/09/05 07:09:54;;;;;;;;;5.00;4.20;;;;;23.41;54.07;101148.56;5052461;28;45469;-54
2022/09/05 07:12:25;;;;;;;;;6.20;5.40;;;;;23.57;53.83;101168.91;5062591;28;45395;-53
2022/09/05 07:14:55;;;;;;;;;5.00;5.00;;;;;23.55;54.33;101174.78;5060892;28;45648;-52
2022/09/05 07:18:00;;;;;;;;;5.40;5.40;;;;;23.46;54.06;101168.16;5060405;28;45373;-53
2022/09/05 07:20:34;;;;;;;;;5.60;5.60;;;;;23.40;54.18;101166.50;5043116;28;45433;-52
2022/09/05 07:23:39;;;;;;;;;4.40;4.40;;;;;23.51;54.24;101179.31;5046184;28;45516;-56
2022/09/05 07:26:06;;;;;;;;;5.80;5.80;;;;;23.52;54.57;101164.19;5094314;27;45372;-50
2022/09/05 07:28:31;;;;;;;;;7.60;6.60;;;;;23.34;54.39;101129.31;5098872;27;46629;-55
2022/09/05 07:31:02;;;;;;;;;6.50;5.25;;;;;23.28;54.33;101120.03;5092424;27;45385;-56
2022/09/05 07:33:29;;;;;;;;;6.00;6.00;;;;;23.57;53.91;101163.31;5102125;27;45399;-54
2022/09/05 07:36:04;;;;;;;;;6.60;6.60;;;;;23.54;54.08;101150.72;5118651;27;45359;-52
2022/09/05 07:38:30;;;;;;;;;7.20;5.20;;;;;23.55;53.94;101154.38;5102387;27;46448;-54
2022/09/05 07:41:04;;;;;;;;;7.25;6.00;;;;;23.62;54.24;101168.03;5056389;27;45391;-55
2022/09/05 07:43:34;;;;;;;;;7.00;6.00;;;;;23.55;53.97;101155.19;5117180;27;45420;-54
2022/09/05 07:46:00;;;;;;;;;4.20;4.20;;;;;23.59;53.95;101158.28;5100017;27;45529;-51
2022/09/05 07:48:27;;;;;;;;;4.40;4.40;;;;;23.60;54.23;101148.75;5117965;27;46176;-52
2022/09/05 07:50:56;;;;;;;;;5.20;5.20;;;;;23.59;53.77;101135.88;5100832;27;45515;-53
2022/09/05 07:53:21;;;;;;;;;5.20;4.60;;;;;23.61;54.15;101128.00;5101064;27;45398;-54
2022/09/05 07:55:50;;;;;;;;;6.25;6.25;;;;;23.65;53.41;101133.84;5101303;27;45602;-55
2022/09/05 07:58:16;;;;;;;;;6.80;6.00;;;;;23.79;53.07;101150.81;5101005;27;46745;-52
2022/09/05 08:00:41;;;;;;;;;6.25;5.00;;;;;23.87;52.71;101133.41;5101142;27;45412;-55
2022/09/05 08:03:12;;;;;;;;;5.50;5.50;;;;;23.95;52.92;101132.78;5100849;27;45348;-52
2022/09/05 08:05:46;;;;;;;;;5.80;5.80;;;;;24.00;52.53;101109.44;5101787;27;45431;-49
2022/09/05 08:08:15;;;;;;;;;4.40;4.40;;;;;24.21;52.23;101123.31;5082329;27;45527;-54
2022/09/05 08:11:03;;;;;;;;;6.60;6.60;;;;;24.32;51.68;101124.03;5093758;27;45918;-51
2022/09/05 08:13:44;;;;;;;;;5.60;5.40;;;;;24.39;51.76;101130.16;5038887;27;47737;-50
2022/09/05 08:16:11;;;;;;;;;8.00;6.20;;;;;24.34;51.70;101096.53;5076129;27;45811;-53
2022/09/05 08:18:50;;;;;;;;;5.20;5.20;;;;;24.66;51.18;101120.31;5058745;27;45659;-51
2022/09/05 08:21:45;;;;;;;;;5.00;5.00;;;;;24.83;50.68;101122.66;5075674;27;45490;-52
2022/09/05 08:24:19;;;;;;;;;5.40;4.40;;;;;24.97;50.79;101130.34;5090984;27;45558;-54
2022/09/05 08:26:49;;;;;;;;;7.20;7.20;;;;;25.00;50.56;101115.69;5094090;27;45435;-53
2022/09/05 08:29:25;;;;;;;;;8.40;7.20;;;;;25.06;49.58;101120.09;5083775;27;45788;-55
2022/09/05 08:32:07;;;;;;;;;6.20;6.20;;;;;25.10;49.94;101132.41;5113715;27;45421;-55
2022/09/05 08:34:45;;;;;;;;;6.60;6.00;;;;;25.16;49.83;101121.94;5092343;27;45762;-56
2022/09/05 08:37:17;;;;;;;;;5.80;5.80;;;;;25.33;49.36;101123.41;5075034;27;45433;-54
2022/09/05 08:39:43;;;;;;;;;7.80;7.00;;;;;25.47;48.60;101123.47;5085565;27;45404;-55
2022/09/05 08:42:31;;;;;;;;;6.00;6.00;;;;;25.55;48.66;101119.97;5116923;27;45351;-54
2022/09/05 08:45:22;;;;;;;;;6.80;6.80;;;;;25.66;48.34;101135.56;5100111;27;45418;-53
2022/09/05 08:48:08;;;;;;;;;6.00;4.80;;;;;25.46;47.77;101091.75;5098944;27;45345;-53
2022/09/05 08:50:34;;;;;;;;;7.40;6.80;;;;;25.79;48.16;101131.16;5117026;27;45400;-52
2022/09/05 08:53:13;;;;;;;;;4.25;4.25;;;;;25.85;47.32;101129.06;5104357;27;45398;-54
2022/09/05 08:55:53;;;;;;;;;4.00;2.80;;;;;25.95;47.63;101140.16;5100442;27;45424;-50
2022/09/05 08:58:37;;;;;;;;;6.20;5.00;;;;;25.93;47.34;101148.03;5100676;27;45423;-54
2022/09/05 09:01:12;;;;;;;;;7.00;7.00;;;;;26.00;47.04;101172.97;5091668;27;45539;-53
2022/09/05 09:04:02;;;;;;;;;5.20;5.20;;;;;25.98;46.30;101178.91;5096165;27;46524;-49
2022/09/05 09:06:47;;;;;;;;;5.00;5.00;;;;;25.92;46.53;101160.44;5095461;27;45907;-56
2022/09/05 09:09:57;;;;;;;;;4.60;4.60;;;;;25.92;45.46;101157.63;5099397;27;45763;-56
2022/09/05 09:12:47;;;;;;;;;4.60;4.60;;;;;25.89;45.47;101152.63;5044744;27;45986;-52
2022/09/05 09:15:36;;;;;;;;;5.60;5.60;;;;;25.89;45.70;101160.22;5073257;27;45825;-54
2022/09/05 09:18:30;;;;;;;;;3.00;3.00;;;;;25.79;45.75;101142.38;5079222;27;45473;-52
2022/09/05 09:20:57;;;;;;;;;3.00;3.00;;;;;25.91;45.68;101155.09;5079950;27;45635;-50
2022/09/05 09:24:05;;;;;;;;;3.00;3.00;;;;;25.95;45.51;101156.19;5090904;27;45752;-51
2022/09/05 09:26:58;;;;;;;;;3.40;3.40;;;;;25.94;45.24;101168.56;4979589;28;45686;-53
2022/09/05 09:29:24;;;;;;;;;3.20;3.20;;;;;25.85;44.74;101163.66;5069347;27;45538;-52
2022/09/05 09:32:09;;;;;;;;;2.25;2.25;;;;;25.88;45.22;101155.75;5057471;27;45646;-52
2022/09/05 09:34:43;;;;;;;;;4.60;3.80;;;;;25.81;44.98;101145.72;5076350;27;46727;-50
2022/09/05 09:37:21;;;;;;;;;2.80;2.80;;;;;25.85;45.11;101135.53;5054820;28;45501;-56
2022/09/05 09:39:59;;;;;;;;;5.00;3.60;;;;;25.89;44.71;101124.50;5061582;28;45393;-55
2022/09/05 09:42:36;;;;;;;;;5.80;5.00;;;;;25.96;44.55;101110.03;5074919;28;45536;-55
2022/09/05 09:45:11;;;;;;;;;3.60;3.00;;;;;26.22;44.46;101134.94;5074656;28;46707;-56
2022/09/05 09:47:58;;;;;;;;;4.00;4.00;;;;;26.34;43.79;101132.47;5074004;27;45406;-51
2022/09/05 09:50:33;;;;;;;;;3.00;3.00;;;;;26.42;43.69;101130.06;5095684;27;45608;-51
2022/09/05 09:53:11;;;;;;;;;3.80;3.80;;;;;26.60;43.15;101129.16;5062884;28;45725;-50
2022/09/05 09:56:10;;;;;;;;;5.40;4.60;;;;;26.61;41.99;101118.72;5064708;28;46225;-55
2022/09/05 09:58:56;;;;;;;;;3.40;2.40;;;;;26.73;41.71;101116.22;5045617;28;45310;-59
2022/09/05 10:01:27;;;;;;;;;3.00;3.00;;;;;26.82;41.32;101115.50;5075093;28;45451;-54
2022/09/05 10:04:11;;;;;;;;;2.00;2.00;;;;;26.83;41.14;101115.16;5077836;27;45432;-52
2022/09/05 10:06:42;;;;;;;;;2.00;2.00;;;;;26.71;41.41;101081.06;5076947;27;45776;-56
2022/09/05 10:09:28;;;;;;;;;2.60;2.60;;;;;26.74;40.95;101074.81;5077228;27;45580;-56
2022/09/05 10:12:05;;;;;;;;;2.00;2.00;;;;;26.88;40.92;101094.50;5094847;27;45390;-58
2022/09/05 10:15:12;;;;;;;;;2.00;2.00;;;;;26.90;40.21;101090.25;5095774;27;45558;-52
2022/09/05 10:17:55;;;;;;;;;1.80;1.60;;;;;26.97;40.02;101083.38;5085764;27;46755;-52
2022/09/05 10:20:26;;;;;;;;;4.20;2.80;;;;;27.04;40.45;101078.97;5056657;28;45366;-57
2022/09/05 10:23:17;;;;;;;;;3.00;2.00;;;;;27.14;40.00;101080.72;5075051;28;45443;-52
2022/09/05 10:26:04;;;;;;;;;4.00;4.00;;;;;27.24;39.60;101084.44;5086402;27;45440;-52
2022/09/05 10:29:03;;;;;;;;;2.20;2.00;;;;;27.32;38.60;101087.34;5077670;27;46517;-55
2022/09/05 10:32:05;;;;;;;;;2.00;2.00;;;;;27.29;38.36;101081.50;5101667;27;45383;-55
2022/09/05 10:34:56;;;;;;;;;4.80;3.40;;;;;27.34;38.90;101081.41;5083421;27;45661;-51
2022/09/05 10:37:22;;;;;;;;;6.40;5.00;;;;;27.28;38.41;101055.34;5081811;27;45321;-52
2022/09/05 10:39:51;;;;;;;;;2.00;2.00;;;;;27.49;38.12;101077.38;5079777;27;45511;-55
2022/09/05 10:42:25;;;;;;;;;0.00;0.00;;;;;27.55;37.98;101076.09;5104073;27;45380;-57
2022/09/05 10:44:55;;;;;;;;;3.00;3.00;;;;;27.54;38.63;101067.97;5094359;27;45407;-53
2022/09/05 10:47:26;;;;;;;;;3.60;3.60;;;;;27.46;38.28;101067.56;5049560;27;45381;-53
2022/09/05 10:50:29;;;;;;;;;1.20;1.20;;;;;27.56;38.37;101074.09;5094638;27;46250;-60
2022/09/05 10:52:59;;;;;;;;;3.00;3.00;;;;;27.70;38.92;101068.44;5076576;27;45381;-55
2022/09/05 10:55:39;;;;;;;;;3.00;3.00;;;;;27.77;37.76;101060.34;5074863;27;45391;-55
2022/09/05 10:58:13;;;;;;;;;4.20;3.40;;;;;27.91;37.38;101059.44;5100684;27;45366;-56
2022/09/05 11:00:55;;;;;;;;;1.60;1.60;;;;;28.00;37.68;101065.94;5114997;27;45427;-55
2022/09/05 11:03:22;;;;;;;;;1.80;1.80;;;;;27.96;38.10;101050.84;5115856;27;45303;-54
2022/09/05 11:05:56;;;;;;;;;3.60;2.20;;;;;28.09;36.99;101049.06;5098365;27;45343;-55
2022/09/05 11:08:49;;;;;;;;;2.80;2.40;;;;;28.04;36.97;101052.88;5098584;27;45797;-57
2022/09/05 11:11:17;;;;;;;;;3.20;3.20;;;;;28.11;36.53;101049.56;5101114;27;45906;-54
2022/09/05 11:13:46;;;;;;;;;2.00;2.00;;;;;28.22;36.85;101053.81;5097859;27;45479;-51
2022/09/05 11:16:47;;;;;;;;;2.20;2.20;;;;;28.37;36.49;101048.88;5116194;27;45272;-58
2022/09/05 11:19:36;;;;;;;;;2.20;2.20;;;;;28.03;36.29;100977.03;5086639;27;45537;-56
2022/09/05 11:22:02;;;;;;;;;3.00;2.00;;;;;28.57;36.46;101055.09;5098877;27;46873;-58
2022/09/05 11:24:48;;;;;;;;;4.75;3.00;;;;;28.62;36.44;101055.78;5115841;27;45382;-57
2022/09/05 11:27:27;;;;;;;;;3.00;3.00;;;;;28.51;36.01;101038.31;5056921;27;45582;-56
2022/09/05 11:29:57;;;;;;;;;2.20;2.20;;;;;28.46;35.98;101046.94;5091481;27;45470;-58
2022/09/05 11:32:49;;;;;;;;;2.20;2.20;;;;;28.46;35.79;101038.47;5067514;27;45739;-52
2022/09/05 11:35:27;;;;;;;;;3.00;2.40;;;;;28.39;35.78;101033.28;5110916;27;45392;-57
2022/09/05 11:38:08;;;;;;;;;2.60;2.60;;;;;28.46;35.76;101034.78;5096555;27;45684;-56
2022/09/05 11:40:52;;;;;;;;;3.00;3.00;;;;;28.52;34.97;101033.50;5114798;27;45416;-56
2022/09/05 11:43:46;;;;;;;;;1.40;1.40;;;;;28.53;36.43;101027.53;5099208;27;46873;-57
2022/09/05 11:46:50;;;;;;;;;3.00;3.00;;;;;28.71;35.32;101027.56;5078758;27;45760;-52
2022/09/05 11:49:30;;;;;;;;;3.20;2.60;;;;;28.78;34.52;101008.16;5085100;27;45439;-56
2022/09/05 11:52:20;;;;;;;;;2.60;2.60;;;;;28.88;34.70;101023.13;5060395;27;45423;-56
2022/09/05 11:55:04;;;;;;;;;1.40;1.40;;;;;28.96;34.45;101025.13;5093411;27;46334;-57
2022/09/05 11:57:51;;;;;;;;;1.80;1.80;;;;;29.05;34.69;101011.84;5099536;27;45557;-56
2022/09/05 12:00:22;;;;;;;;;2.40;2.40;;;;;29.13;34.47;101009.34;5099854;27;45420;-53
2022/09/05 12:02:48;;;;;;;;;1.80;1.80;;;;;29.21;34.00;101009.34;5096343;27;45418;-51
2022/09/05 12:05:39;;;;;;;;;2.20;2.20;;;;;29.26;33.92;101004.69;5096952;27;45699;-56
2022/09/05 12:08:14;;;;;;;;;5.20;3.60;;;;;29.30;34.18;100998.00;5101805;27;45433;-54
2022/09/05 12:10:58;;;;;;;;;3.40;2.80;;;;;29.30;34.67;100972.56;5117658;27;45487;-55
2022/09/05 12:13:36;;;;;;;;;1.60;1.60;;;;;29.66;34.34;100979.00;5098149;27;45896;-50
2022/09/05 12:16:16;;;;;;;;;3.20;3.20;;;;;29.80;33.51;100973.16;5066236;27;48050;-57
2022/09/05 12:19:05;;;;;;;;;2.00;2.00;;;;;29.93;33.04;100978.94;5073586;27;45705;-56
2022/09/05 12:22:06;;;;;;;;;3.00;3.00;;;;;30.04;32.98;100983.06;5091494;27;45767;-54
2022/09/05 12:24:41;;;;;;;;;4.20;3.00;;;;;30.17;32.57;100981.19;5088421;27;45509;-53